Time;durP1;ratioP1;P1;durP2;ratioP2;P2;SDS_P1;SDS_P2;PMS_P1;PMS_P2;Temp;Humidity;BMP_temperature;BMP_pressure;BME280_temperature;BME280_humidity;BME280_pressure;Samples;Min_cycle;Max_cycle;Signal;HPM_P1;HPM_P2
2022/12/26 00:01:59;;;;;;;24.55;22.38;;;13.20;99.90;;;;;;4908472;29;20048;-92
2022/12/26 00:04:25;;;;;;;24.65;22.38;;;13.20;99.90;;;;;;4886517;29;20037;-92
2022/12/26 00:06:51;;;;;;;26.13;24.20;;;13.20;99.90;;;;;;4925175;29;20039;-92
2022/12/26 00:09:17;;;;;;;27.63;25.50;;;13.10;99.90;;;;;;4916648;29;20039;-92
2022/12/26 00:11:43;;;;;;;24.73;22.58;;;13.10;99.90;;;;;;4932113;29;20036;-91
2022/12/26 00:14:11;;;;;;;24.10;22.38;;;13.00;99.90;;;;;;4904616;29;20028;-91
2022/12/26 00:16:39;;;;;;;25.55;22.88;;;13.00;99.90;;;;;;4899727;29;20036;-92
2022/12/26 00:19:05;;;;;;;26.10;24.08;;;13.10;99.90;;;;;;4899670;29;20032;-90
2022/12/26 00:21:31;;;;;;;26.73;24.35;;;13.10;99.90;;;;;;4945386;29;20055;-91
2022/12/26 00:23:58;;;;;;;26.80;24.67;;;13.20;99.90;;;;;;4926819;29;20097;-91
2022/12/26 00:26:25;;;;;;;29.00;26.75;;;13.20;99.90;;;;;;4940873;29;20032;-91
2022/12/26 00:28:55;;;;;;;27.52;25.05;;;13.30;99.90;;;;;;4931451;29;20032;-91
2022/12/26 00:31:26;;;;;;;24.00;21.38;;;13.20;99.90;;;;;;4902691;29;20397;-91
2022/12/26 00:33:52;;;;;;;24.35;22.45;;;13.20;99.90;;;;;;4927334;29;20043;-91
2022/12/26 00:36:20;;;;;;;21.98;20.10;;;13.20;99.90;;;;;;4933947;29;20051;-91
2022/12/26 00:38:47;;;;;;;25.02;23.08;;;13.20;99.90;;;;;;4949090;29;20043;-91
2022/12/26 00:41:13;;;;;;;26.58;24.05;;;13.20;99.90;;;;;;4949689;29;20044;-91
2022/12/26 00:43:39;;;;;;;23.55;21.70;;;13.30;99.90;;;;;;4946241;29;20047;-91
2022/12/26 00:46:06;;;;;;;23.95;22.45;;;13.20;99.90;;;;;;4929378;28;20040;-92
2022/12/26 00:48:32;;;;;;;26.55;24.65;;;13.20;99.90;;;;;;4916400;29;20402;-91
2022/12/26 00:50:58;;;;;;;25.63;23.52;;;13.20;99.90;;;;;;4952881;28;20031;-91
2022/12/26 00:53:24;;;;;;;23.50;21.13;;;13.20;99.90;;;;;;4951554;29;20105;-91
2022/12/26 00:55:51;;;;;;;27.40;25.08;;;13.20;99.90;;;;;;4954124;29;20035;-91
2022/12/26 00:58:17;;;;;;;24.73;23.13;;;13.20;99.90;;;;;;4953848;29;20032;-91
2022/12/26 01:00:44;;;;;;;26.27;24.08;;;13.10;99.90;;;;;;4948854;28;20501;-91
2022/12/26 01:03:10;;;;;;;27.27;25.27;;;13.10;99.90;;;;;;4926165;29;20054;-91
2022/12/26 01:05:46;;;;;;;25.35;23.65;;;13.10;99.90;;;;;;4930013;29;20051;-92
2022/12/26 01:08:12;;;;;;;25.13;23.23;;;13.10;99.90;;;;;;4926135;29;20366;-91
2022/12/26 01:10:42;;;;;;;24.00;22.20;;;13.10;99.90;;;;;;4919264;29;20042;-92
2022/12/26 01:13:09;;;;;;;25.38;23.27;;;13.10;99.90;;;;;;4918704;29;20051;-91
2022/12/26 01:15:35;;;;;;;25.38;23.20;;;13.10;99.90;;;;;;4918649;29;20044;-91
2022/12/26 01:18:01;;;;;;;25.05;22.40;;;13.00;99.90;;;;;;4931423;29;20063;-91
2022/12/26 01:20:27;;;;;;;23.13;21.08;;;13.00;99.90;;;;;;4937031;29;20520;-91
2022/12/26 01:22:54;;;;;;;22.63;20.55;;;13.00;99.90;;;;;;4937520;29;20039;-91
2022/12/26 01:25:20;;;;;;;22.00;20.38;;;13.00;99.90;;;;;;4938172;29;20394;-91
2022/12/26 01:27:46;;;;;;;22.65;20.58;;;13.00;99.90;;;;;;4939056;29;20461;-91
2022/12/26 01:30:13;;;;;;;24.65;22.50;;;13.00;99.90;;;;;;4938474;28;20032;-91
2022/12/26 01:32:39;;;;;;;23.70;21.38;;;13.00;99.90;;;;;;4936956;29;20039;-91
2022/12/26 01:35:05;;;;;;;21.80;20.13;;;13.00;99.90;;;;;;4935959;29;20031;-92
2022/12/26 01:37:31;;;;;;;24.58;22.63;;;13.00;99.90;;;;;;4917346;29;20516;-90
2022/12/26 01:39:57;;;;;;;22.58;20.52;;;13.00;99.90;;;;;;4905669;29;20051;-91
2022/12/26 01:42:24;;;;;;;22.00;20.17;;;13.00;99.90;;;;;;4949690;29;20401;-91
2022/12/26 01:45:05;;;;;;;22.45;20.55;;;13.00;99.90;;;;;;4934986;29;20040;-91
2022/12/26 01:48:05;;;;;;;23.60;21.40;;;13.00;99.90;;;;;;4923263;29;20047;-91
2022/12/26 01:50:37;;;;;;;20.88;18.98;;;13.00;99.90;;;;;;4936033;29;20042;-91
2022/12/26 01:53:16;;;;;;;22.77;21.02;;;13.00;99.90;;;;;;4951145;29;20497;-91
2022/12/26 01:55:44;;;;;;;23.13;20.77;;;12.90;99.90;;;;;;4946974;29;20058;-92
2022/12/26 01:58:14;;;;;;;23.73;21.77;;;12.90;99.90;;;;;;4950412;29;20473;-92
2022/12/26 02:00:40;;;;;;;22.60;20.95;;;12.80;99.90;;;;;;4906027;29;20059;-92
2022/12/26 02:05:53;;;;;;;23.65;21.70;;;12.80;99.90;;;;;;4911890;29;20035;-91
2022/12/26 02:08:23;;;;;;;25.27;23.30;;;12.80;99.90;;;;;;4918043;29;20386;-92
2022/12/26 02:10:51;;;;;;;22.80;21.15;;;12.90;99.90;;;;;;4921511;29;20611;-91
2022/12/26 02:13:17;;;;;;;24.05;21.52;;;12.80;99.90;;;;;;4914752;29;20042;-91
2022/12/26 02:15:44;;;;;;;22.63;21.02;;;12.80;99.90;;;;;;4927093;29;20032;-92
2022/12/26 02:18:10;;;;;;;24.27;22.13;;;12.80;99.90;;;;;;4928180;29;20024;-92
2022/12/26 02:21:04;;;;;;;21.52;20.02;;;12.80;99.90;;;;;;4928544;29;20048;-91
2022/12/26 02:23:39;;;;;;;23.70;21.52;;;12.80;99.90;;;;;;4909869;29;20481;-91
2022/12/26 02:26:33;;;;;;;22.48;20.77;;;12.80;99.90;;;;;;4943143;29;20032;-91
2022/12/26 02:29:16;;;;;;;22.67;20.77;;;12.80;99.90;;;;;;4920881;29;20039;-90
2022/12/26 02:31:47;;;;;;;21.48;19.90;;;12.80;99.90;;;;;;4939315;28;20046;-91
2022/12/26 02:34:18;;;;;;;21.85;20.23;;;12.80;99.90;;;;;;4939967;29;20036;-92
2022/12/26 02:37:12;;;;;;;24.45;22.70;;;12.90;99.90;;;;;;4928965;29;20036;-92
2022/12/26 02:39:49;;;;;;;22.67;20.77;;;12.90;99.90;;;;;;4934748;29;20047;-90
2022/12/26 02:42:35;;;;;;;22.80;20.90;;;12.90;99.90;;;;;;4935258;29;20032;-91
2022/12/26 02:48:23;;;;;;;24.95;22.88;;;12.90;99.90;;;;;;4912014;29;20047;-92
2022/12/26 03:14:12;;;;;;;22.90;20.88;;;12.70;99.90;;;;;;4942188;29;20512;-91
2022/12/26 03:19:23;;;;;;;23.08;21.02;;;12.80;99.90;;;;;;4952241;28;20062;-91
2022/12/26 03:21:49;;;;;;;24.58;22.17;;;12.80;99.90;;;;;;4935049;29;20051;-92
2022/12/26 03:24:15;;;;;;;24.30;22.02;;;12.80;99.90;;;;;;4922281;29;20042;-92
2022/12/26 03:26:53;;;;;;;22.98;20.48;;;12.80;99.90;;;;;;4936361;29;20032;-92
2022/12/26 03:32:07;;;;;;;22.63;20.70;;;12.70;99.90;;;;;;4934254;28;20055;-91
2022/12/26 03:34:36;;;;;;;23.85;21.75;;;12.60;99.90;;;;;;4934203;29;20047;-91
2022/12/26 03:37:14;;;;;;;24.88;22.42;;;12.60;99.90;;;;;;4925757;29;20036;-91
2022/12/26 04:44:10;;;;;;;24.35;20.58;;;12.40;99.90;;;;;;4922405;29;20059;-90
2022/12/26 04:46:40;;;;;;;21.38;19.48;;;12.40;99.90;;;;;;4927759;28;20068;-90
2022/12/26 04:51:53;;;;;;;19.45;18.05;;;12.40;99.90;;;;;;4931966;29;20303;-89
2022/12/26 04:54:19;;;;;;;22.40;20.40;;;12.40;99.90;;;;;;4914972;29;20029;-89
2022/12/26 04:56:45;;;;;;;18.60;17.08;;;12.40;99.90;;;;;;4924457;29;20039;-89
2022/12/26 04:59:12;;;;;;;70.47;21.20;;;12.50;99.90;;;;;;4917978;29;20055;-90
2022/12/26 05:09:57;;;;;;;23.30;21.17;;;12.50;99.90;;;;;;4928281;29;20066;-90
2022/12/26 05:12:23;;;;;;;20.95;19.27;;;12.50;99.90;;;;;;4914714;29;20048;-89
2022/12/26 05:14:49;;;;;;;20.27;18.80;;;12.50;99.90;;;;;;4923039;29;20058;-90
2022/12/26 05:31:05;;;;;;;31.02;19.52;;;12.40;99.90;;;;;;4920594;29;19922;-90
2022/12/26 05:36:17;;;;;;;20.08;18.42;;;12.30;99.90;;;;;;4920469;29;20047;-88
2022/12/26 05:38:43;;;;;;;21.33;19.48;;;12.20;99.90;;;;;;4905362;29;20043;-89
2022/12/26 05:41:09;;;;;;;22.17;20.20;;;12.20;99.90;;;;;;4919599;29;20032;-89
2022/12/26 05:43:35;;;;;;;21.73;19.50;;;12.30;99.90;;;;;;4927455;29;20055;-89
2022/12/26 05:46:01;;;;;;;21.08;19.35;;;12.30;99.90;;;;;;4920449;28;20412;-88
2022/12/26 05:48:27;;;;;;;339.23;33.72;;;12.20;99.90;;;;;;4937124;29;20035;-89
2022/12/26 05:51:00;;;;;;;21.45;19.67;;;12.30;99.90;;;;;;4934337;29;20049;-89
2022/12/26 05:53:27;;;;;;;22.88;21.15;;;12.30;99.90;;;;;;4904754;29;20055;-91
2022/12/26 05:55:53;;;;;;;22.38;20.88;;;12.40;99.90;;;;;;4903825;29;20044;-92
2022/12/26 05:58:20;;;;;;;22.10;20.23;;;12.40;99.90;;;;;;4896906;29;20470;-93
2022/12/26 06:00:46;;;;;;;23.70;21.92;;;12.40;99.90;;;;;;4894630;29;20040;-93
2022/12/26 06:03:12;;;;;;;22.08;19.85;;;12.40;99.90;;;;;;4918319;29;20040;-93
2022/12/26 06:05:38;;;;;;;22.63;20.00;;;12.40;99.90;;;;;;4903185;29;20036;-92
2022/12/26 06:08:04;;;;;;;51.05;21.75;;;12.40;99.90;;;;;;4921473;29;20035;-92
2022/12/26 06:10:30;;;;;;;21.83;20.00;;;12.40;99.90;;;;;;4921289;29;20039;-93
2022/12/26 06:12:58;;;;;;;23.00;19.58;;;12.30;99.90;;;;;;4920758;29;20040;-92
2022/12/26 06:15:24;;;;;;;20.77;19.02;;;12.30;99.90;;;;;;4936301;28;20039;-92
2022/12/26 06:17:50;;;;;;;22.13;20.52;;;12.20;99.90;;;;;;4906166;29;20039;-92
2022/12/26 06:20:16;;;;;;;22.58;20.83;;;12.20;99.90;;;;;;4938535;29;20051;-92
2022/12/26 06:22:42;;;;;;;23.83;21.58;;;12.10;99.90;;;;;;4937110;29;20074;-92
2022/12/26 06:25:08;;;;;;;21.20;19.88;;;12.10;99.90;;;;;;4938394;29;20039;-93
2022/12/26 06:27:34;;;;;;;21.27;19.65;;;12.10;99.90;;;;;;4939389;29;20034;-92
2022/12/26 06:30:01;;;;;;;23.13;20.92;;;12.10;99.90;;;;;;4913561;29;20052;-92
2022/12/26 06:32:27;;;;;;;21.63;20.00;;;12.20;99.90;;;;;;4905491;28;20039;-93
2022/12/26 06:34:53;;;;;;;23.00;21.05;;;12.20;99.90;;;;;;4905748;29;20044;-91
2022/12/26 06:37:19;;;;;;;21.75;19.92;;;12.10;99.90;;;;;;4919077;29;20043;-92
2022/12/26 06:39:45;;;;;;;23.33;21.27;;;12.10;99.90;;;;;;4902860;29;20032;-93
2022/12/26 06:42:11;;;;;;;21.20;19.75;;;12.10;99.90;;;;;;4902575;29;20028;-93
2022/12/26 06:44:37;;;;;;;20.05;18.50;;;12.10;99.90;;;;;;4918396;29;20470;-94
2022/12/26 06:47:03;;;;;;;19.77;18.27;;;12.10;99.90;;;;;;4930667;28;20032;-94
2022/12/26 06:49:29;;;;;;;20.17;18.73;;;12.10;99.90;;;;;;4918892;29;20036;-93
2022/12/26 06:51:56;;;;;;;22.13;20.00;;;12.10;99.90;;;;;;4920624;29;20508;-94
2022/12/26 06:54:22;;;;;;;21.33;19.58;;;12.10;99.90;;;;;;4920864;29;20027;-95
2022/12/26 06:56:48;;;;;;;20.92;19.33;;;12.00;99.90;;;;;;4919712;29;20536;-94
2022/12/26 06:59:14;;;;;;;23.02;21.10;;;12.10;99.90;;;;;;4917501;29;20032;-93
2022/12/26 07:01:40;;;;;;;22.15;20.40;;;12.10;99.90;;;;;;4930450;28;20516;-94
2022/12/26 07:04:06;;;;;;;21.27;19.73;;;12.10;99.90;;;;;;4937885;29;20036;-93
2022/12/26 07:06:34;;;;;;;22.02;20.42;;;12.10;99.90;;;;;;4938078;29;20028;-93
2022/12/26 07:09:13;;;;;;;23.75;21.85;;;12.10;99.90;;;;;;4934664;29;20032;-94
2022/12/26 07:11:41;;;;;;;20.80;19.10;;;12.10;99.90;;;;;;4920825;29;20044;-93
2022/12/26 07:14:07;;;;;;;21.23;19.42;;;12.20;99.90;;;;;;4926339;29;20108;-93
2022/12/26 07:16:37;;;;;;;22.02;20.08;;;12.20;99.90;;;;;;4917442;29;20039;-94
2022/12/26 07:19:03;;;;;;;21.48;19.92;;;12.20;99.90;;;;;;4913032;29;20040;-93
2022/12/26 07:21:30;;;;;;;22.33;20.75;;;12.20;99.90;;;;;;4939915;29;20052;-93
2022/12/26 07:23:56;;;;;;;21.90;19.90;;;12.20;99.90;;;;;;4941658;29;20058;-94
2022/12/26 07:26:23;;;;;;;22.73;20.88;;;12.30;99.90;;;;;;4942275;29;20039;-94
2022/12/26 07:28:56;;;;;;;23.13;21.50;;;12.20;99.90;;;;;;4940414;29;20036;-88
2022/12/26 07:31:22;;;;;;;22.70;20.98;;;12.20;99.90;;;;;;4898325;29;20032;-92
2022/12/26 07:33:49;;;;;;;20.42;18.83;;;12.30;99.90;;;;;;4940342;29;20039;-92
2022/12/26 07:36:15;;;;;;;21.50;19.42;;;12.40;99.90;;;;;;4927288;29;20046;-93
2022/12/26 07:38:41;;;;;;;22.67;20.20;;;12.40;99.90;;;;;;4938056;29;20027;-92
2022/12/26 07:43:52;;;;;;;22.95;20.98;;;12.30;99.90;;;;;;4939091;29;20409;-89
2022/12/26 07:46:18;;;;;;;23.05;21.27;;;12.20;99.90;;;;;;4934414;28;20032;-92
2022/12/26 07:48:45;;;;;;;21.83;20.33;;;12.20;99.90;;;;;;4919019;29;20040;-89
2022/12/26 07:51:11;;;;;;;21.63;19.67;;;12.20;99.90;;;;;;4936875;29;20160;-91
2022/12/26 07:53:37;;;;;;;20.52;18.73;;;12.30;99.90;;;;;;4931118;29;20038;-85
2022/12/26 07:56:03;;;;;;;21.55;19.75;;;12.20;99.90;;;;;;4943372;29;20039;-91
2022/12/26 07:58:29;;;;;;;23.38;21.25;;;12.20;99.90;;;;;;4939851;29;20059;-93
2022/12/26 08:00:58;;;;;;;22.13;20.23;;;12.10;99.90;;;;;;4924242;29;20043;-93
2022/12/26 08:03:24;;;;;;;21.80;19.73;;;12.10;99.90;;;;;;4930403;29;20035;-92
2022/12/26 08:05:51;;;;;;;21.98;19.92;;;12.10;99.90;;;;;;4906823;29;20043;-93
2022/12/26 08:08:17;;;;;;;22.25;20.70;;;12.10;99.90;;;;;;4948388;29;20035;-92
2022/12/26 08:10:43;;;;;;;21.17;19.67;;;12.10;99.90;;;;;;4926911;29;20043;-92
2022/12/26 08:13:09;;;;;;;21.58;19.95;;;12.00;99.90;;;;;;4931896;29;20046;-90
2022/12/26 08:15:38;;;;;;;19.70;18.50;;;12.10;99.90;;;;;;4914979;29;20028;-89
2022/12/26 08:18:05;;;;;;;22.67;20.83;;;12.00;99.90;;;;;;4932929;29;20043;-88
2022/12/26 08:20:31;;;;;;;22.25;20.08;;;12.10;99.90;;;;;;4933990;29;20047;-89
2022/12/26 08:22:57;;;;;;;21.40;19.83;;;12.10;99.90;;;;;;4923073;29;20477;-89
2022/12/26 08:25:24;;;;;;;21.98;20.25;;;12.10;99.90;;;;;;4935023;29;20043;-90
2022/12/26 08:27:50;;;;;;;22.00;20.33;;;12.20;99.90;;;;;;4947056;29;20032;-88
2022/12/26 08:30:16;;;;;;;19.88;18.20;;;12.20;99.90;;;;;;4933032;28;20036;-88
2022/12/26 08:32:42;;;;;;;21.25;19.75;;;12.20;99.90;;;;;;4934162;29;20034;-88
2022/12/26 08:35:08;;;;;;;24.25;22.55;;;12.20;99.90;;;;;;4929040;29;20048;-87
2022/12/26 08:37:34;;;;;;;28.50;25.60;;;12.30;99.90;;;;;;4914947;29;20486;-89
2022/12/26 08:40:00;;;;;;;25.42;23.33;;;12.30;99.90;;;;;;4915156;29;20040;-87
2022/12/26 08:42:26;;;;;;;26.75;24.23;;;12.20;99.90;;;;;;4915173;29;20461;-88
2022/12/26 08:44:52;;;;;;;25.58;23.63;;;12.30;99.90;;;;;;4928604;29;20058;-88
2022/12/26 08:47:18;;;;;;;25.00;22.95;;;12.30;99.90;;;;;;4934905;28;20404;-88
2022/12/26 08:49:45;;;;;;;22.65;20.83;;;12.40;99.90;;;;;;4934348;29;20108;-89
2022/12/26 08:52:11;;;;;;;27.75;25.42;;;12.30;99.90;;;;;;4933871;29;20040;-88
2022/12/26 08:54:37;;;;;;;25.58;23.63;;;12.40;99.90;;;;;;4920189;29;20047;-89
2022/12/26 08:57:03;;;;;;;23.95;22.33;;;12.40;99.90;;;;;;4914840;29;20041;-87
2022/12/26 08:59:29;;;;;;;22.67;20.88;;;12.40;99.90;;;;;;4914610;29;20452;-90
2022/12/26 09:01:55;;;;;;;21.42;19.55;;;12.50;99.90;;;;;;4912588;29;20044;-90
2022/12/26 09:04:21;;;;;;;23.10;21.42;;;12.60;99.90;;;;;;4916148;29;20052;-90
2022/12/26 09:06:47;;;;;;;23.98;22.17;;;12.50;99.90;;;;;;4915977;29;20043;-89
2022/12/26 09:09:13;;;;;;;26.35;24.17;;;12.50;99.90;;;;;;4914717;29;20032;-91
2022/12/26 09:11:40;;;;;;;23.85;22.00;;;12.50;99.90;;;;;;4933056;29;20044;-89
2022/12/26 09:14:06;;;;;;;23.38;21.58;;;12.50;99.90;;;;;;4928096;29;20044;-90
2022/12/26 09:16:37;;;;;;;24.60;22.90;;;12.50;99.90;;;;;;4920641;28;20036;-90
2022/12/26 09:19:04;;;;;;;24.88;23.27;;;12.60;99.90;;;;;;4920139;29;20024;-88
2022/12/26 09:21:30;;;;;;;23.38;21.42;;;12.60;99.90;;;;;;4932885;29;20055;-88
2022/12/26 09:23:57;;;;;;;24.77;22.60;;;12.60;99.90;;;;;;4936706;29;20054;-88
2022/12/26 09:26:23;;;;;;;29.20;26.60;;;12.60;99.90;;;;;;4940286;29;20039;-88
2022/12/26 09:28:50;;;;;;;24.38;21.88;;;12.60;99.90;;;;;;4907370;29;20040;-88
2022/12/26 09:31:27;;;;;;;25.73;23.50;;;12.60;99.90;;;;;;4921655;29;20401;-89
2022/12/26 09:33:53;;;;;;;28.90;26.10;;;12.60;99.90;;;;;;4926477;29;20024;-92
2022/12/26 09:36:21;;;;;;;23.85;21.95;;;12.50;99.90;;;;;;4921706;29;20031;-90
2022/12/26 09:38:47;;;;;;;21.80;20.23;;;12.50;99.90;;;;;;4937243;29;20047;-92
2022/12/26 09:41:25;;;;;;;20.70;19.10;;;12.60;99.90;;;;;;4948673;29;20043;-92
2022/12/26 09:44:14;;;;;;;18.83;17.33;;;12.70;99.90;;;;;;4924385;29;20047;-91
2022/12/26 09:47:11;;;;;;;20.00;18.42;;;12.70;99.90;;;;;;4917102;29;20036;-91
2022/12/26 09:49:49;;;;;;;19.38;17.27;;;12.70;99.90;;;;;;4928929;29;20044;-92
2022/12/26 09:52:18;;;;;;;20.10;18.52;;;12.70;99.90;;;;;;4921644;29;20036;-89
2022/12/26 09:54:57;;;;;;;20.10;18.38;;;12.80;99.90;;;;;;4937227;29;20023;-93
2022/12/26 09:57:50;;;;;;;21.15;19.27;;;12.80;99.90;;;;;;4924040;29;20032;-92
2022/12/26 10:00:22;;;;;;;21.02;19.08;;;12.80;99.90;;;;;;4935863;28;20043;-91
2022/12/26 10:02:51;;;;;;;21.92;20.02;;;12.90;99.90;;;;;;4921219;29;20030;-93
2022/12/26 10:05:17;;;;;;;18.67;17.02;;;12.80;99.90;;;;;;4921062;29;20039;-92
2022/12/26 10:07:47;;;;;;;21.15;19.38;;;12.80;99.90;;;;;;4907376;29;20048;-91
2022/12/26 10:10:34;;;;;;;21.75;19.90;;;12.80;99.90;;;;;;4936118;29;20034;-91
2022/12/26 10:13:18;;;;;;;20.65;18.52;;;12.70;99.90;;;;;;4936863;29;20028;-91
2022/12/26 10:15:53;;;;;;;21.52;19.88;;;12.70;99.90;;;;;;4928723;29;20051;-88
2022/12/26 10:18:47;;;;;;;24.38;22.52;;;12.70;99.90;;;;;;4919394;29;20048;-89
2022/12/26 10:21:34;;;;;;;21.55;19.95;;;12.70;99.90;;;;;;4934462;29;20115;-90
2022/12/26 10:24:10;;;;;;;19.08;17.58;;;12.70;99.90;;;;;;4934127;29;20047;-88
2022/12/26 10:26:39;;;;;;;19.50;17.77;;;12.70;99.90;;;;;;4939346;29;20031;-86
2022/12/26 10:29:08;;;;;;;20.15;18.42;;;12.70;99.90;;;;;;4931763;29;20042;-88
2022/12/26 10:31:56;;;;;;;24.00;22.17;;;12.80;99.90;;;;;;4924799;29;20035;-88
2022/12/26 10:34:38;;;;;;;20.23;18.90;;;12.80;99.90;;;;;;4917368;29;20040;-88
2022/12/26 10:37:19;;;;;;;19.90;17.90;;;12.90;99.90;;;;;;4912908;29;20044;-89
2022/12/26 10:39:48;;;;;;;21.95;20.35;;;12.90;99.90;;;;;;4927263;29;20327;-88
2022/12/26 10:42:22;;;;;;;23.92;22.10;;;12.90;99.90;;;;;;4949629;29;20047;-87
2022/12/26 10:44:48;;;;;;;25.15;22.88;;;13.00;99.90;;;;;;4940015;29;20055;-88
2022/12/26 10:47:26;;;;;;;25.42;23.10;;;13.00;99.90;;;;;;4923145;29;20044;-89
2022/12/26 10:49:53;;;;;;;23.75;21.65;;;13.00;99.90;;;;;;4925378;29;20042;-86
2022/12/26 10:52:24;;;;;;;21.52;19.73;;;13.00;99.90;;;;;;4932160;29;20042;-87
2022/12/26 10:54:53;;;;;;;22.40;20.50;;;13.00;99.90;;;;;;4925783;29;20028;-85
2022/12/26 10:57:20;;;;;;;21.15;19.52;;;13.10;99.90;;;;;;4919108;29;20040;-87
2022/12/26 10:59:51;;;;;;;20.00;18.27;;;13.00;99.90;;;;;;4902435;29;20051;-89
2022/12/26 11:02:28;;;;;;;19.85;18.48;;;13.00;99.90;;;;;;4910020;29;20032;-89
2022/12/26 11:04:59;;;;;;;20.48;18.58;;;13.10;99.90;;;;;;4914795;29;20059;-89
2022/12/26 11:07:26;;;;;;;21.85;20.27;;;13.10;99.90;;;;;;4932478;29;20028;-89
2022/12/26 11:09:54;;;;;;;21.80;20.25;;;13.10;99.90;;;;;;4932283;29;20059;-90
2022/12/26 11:12:29;;;;;;;20.88;19.02;;;13.10;99.90;;;;;;4943945;29;20039;-88
2022/12/26 11:15:00;;;;;;;19.70;18.08;;;13.20;99.90;;;;;;4934351;29;20035;-91
2022/12/26 11:17:27;;;;;;;;;;;13.20;99.90;;;;;;4934343;28;20035;-92
2022/12/26 11:20:15;;;;;;;19.88;18.17;;;13.20;99.90;;;;;;4928465;29;20288;-89
2022/12/26 11:22:45;;;;;;;17.52;15.98;;;13.20;99.90;;;;;;4934316;29;20031;-90
2022/12/26 11:25:18;;;;;;;18.35;16.67;;;13.20;99.90;;;;;;4911555;29;20066;-89
2022/12/26 11:27:47;;;;;;;19.08;17.42;;;13.10;99.90;;;;;;4944019;29;20378;-89
2022/12/26 11:30:13;;;;;;;18.65;16.95;;;13.10;99.90;;;;;;4915286;28;20027;-89
2022/12/26 11:32:43;;;;;;;17.30;16.15;;;13.20;99.90;;;;;;4934393;29;20047;-89
2022/12/26 11:35:17;;;;;;;19.52;18.25;;;13.20;99.90;;;;;;4918015;29;20031;-88
2022/12/26 11:37:44;;;;;;;21.48;19.95;;;13.20;99.90;;;;;;4907883;29;20045;-89
2022/12/26 11:40:26;;;;;;;23.85;21.70;;;13.20;99.90;;;;;;4917281;29;20047;-92
2022/12/26 11:42:56;;;;;;;21.33;19.42;;;13.20;99.90;;;;;;4911179;29;20036;-85
2022/12/26 11:45:28;;;;;;;20.58;18.75;;;13.10;99.90;;;;;;4888311;28;20056;-87
2022/12/26 11:47:55;;;;;;;21.73;19.80;;;13.20;99.90;;;;;;4931054;29;20047;-88
2022/12/26 11:50:24;;;;;;;21.23;19.70;;;13.20;99.90;;;;;;4916750;29;20039;-90
2022/12/26 11:52:56;;;;;;;19.42;17.63;;;13.20;99.90;;;;;;4922451;29;20035;-87
2022/12/26 11:55:25;;;;;;;18.67;17.27;;;13.20;99.90;;;;;;4935196;29;20044;-88
2022/12/26 11:58:18;;;;;;;19.58;17.90;;;13.10;99.90;;;;;;4920154;29;20035;-87
2022/12/26 12:00:50;;;;;;;20.63;19.17;;;13.10;99.90;;;;;;4914780;28;20048;-88
2022/12/26 12:03:24;;;;;;;18.88;17.20;;;13.10;99.90;;;;;;4899252;29;20478;-87
2022/12/26 12:06:12;;;;;;;20.05;18.25;;;13.10;99.90;;;;;;4911917;29;20044;-87
2022/12/26 12:09:02;;;;;;;21.98;19.63;;;13.20;99.90;;;;;;4927190;29;20386;-88
2022/12/26 12:11:44;;;;;;;18.33;16.90;;;13.20;99.90;;;;;;4918105;29;20020;-88
2022/12/26 12:14:23;;;;;;;17.63;16.10;;;13.20;99.90;;;;;;4917717;29;20374;-88
2022/12/26 12:16:52;;;;;;;17.42;16.02;;;13.20;99.90;;;;;;4917841;29;20032;-88
2022/12/26 12:19:36;;;;;;;20.77;19.15;;;13.20;99.90;;;;;;4912678;29;20028;-87
2022/12/26 12:22:15;;;;;;;18.02;16.35;;;13.30;99.90;;;;;;4911400;29;20493;-88
2022/12/26 12:25:09;;;;;;;17.70;16.38;;;13.40;99.90;;;;;;4919035;29;20044;-87
2022/12/26 12:27:50;;;;;;;19.55;17.88;;;13.40;99.90;;;;;;4952986;29;20031;-88
2022/12/26 12:30:25;;;;;;;20.27;18.70;;;13.40;99.90;;;;;;4937951;28;20032;-88
2022/12/26 12:33:07;;;;;;;18.52;17.00;;;13.40;99.90;;;;;;4899279;29;20051;-88
2022/12/26 12:35:53;;;;;;;20.27;18.48;;;13.40;99.90;;;;;;4916015;29;20036;-88
2022/12/26 12:38:38;;;;;;;22.73;20.65;;;13.60;99.90;;;;;;4896450;29;20044;-85
2022/12/26 12:41:04;;;;;;;19.88;18.55;;;13.70;99.90;;;;;;4917518;29;20042;-86
2022/12/26 12:43:42;;;;;;;22.13;20.58;;;13.80;99.90;;;;;;4917151;29;20035;-84
2022/12/26 12:46:38;;;;;;;19.80;18.30;;;13.90;99.90;;;;;;4906659;29;20404;-86
2022/12/26 12:49:23;;;;;;;23.02;21.38;;;13.80;99.90;;;;;;4916635;29;20043;-85
2022/12/26 12:52:01;;;;;;;21.50;19.48;;;13.80;99.90;;;;;;4916620;29;20382;-85
2022/12/26 12:54:27;;;;;;;22.00;20.42;;;13.70;99.90;;;;;;4919699;29;20039;-85
2022/12/26 12:57:09;;;;;;;16.38;14.95;;;13.80;99.90;;;;;;4915363;29;20032;-85
2022/12/26 12:59:44;;;;;;;18.20;16.88;;;13.80;99.90;;;;;;4899724;29;20482;-86
2022/12/26 13:02:17;;;;;;;17.10;15.18;;;14.00;99.90;;;;;;4898121;29;20043;-85
2022/12/26 13:04:46;;;;;;;24.95;22.90;;;14.00;99.90;;;;;;4885881;29;20055;-86
2022/12/26 13:07:31;;;;;;;17.30;15.70;;;14.00;99.90;;;;;;4913779;29;20059;-85
2022/12/26 13:09:59;;;;;;;15.38;13.90;;;14.00;99.90;;;;;;4898659;29;20039;-86
2022/12/26 13:12:35;;;;;;;15.68;14.40;;;14.10;99.90;;;;;;4897834;29;20477;-86
2022/12/26 13:15:14;;;;;;;15.25;13.75;;;14.00;99.90;;;;;;4913714;29;20389;-86
2022/12/26 13:17:47;;;;;;;17.25;15.43;;;13.90;99.90;;;;;;4918740;29;20042;-86
2022/12/26 13:20:31;;;;;;;16.15;14.70;;;13.80;99.90;;;;;;4914535;29;20055;-86
2022/12/26 13:25:54;;;;;;;15.35;13.60;;;13.60;99.90;;;;;;4928400;29;20058;-85
2022/12/26 13:28:23;;;;;;;16.48;14.73;;;13.70;99.90;;;;;;4952407;29;20381;-86
2022/12/26 13:30:53;;;;;;;17.75;15.95;;;13.80;99.90;;;;;;4951994;28;20039;-85
2022/12/26 13:33:19;;;;;;;18.33;16.27;;;13.80;99.90;;;;;;4948276;29;20028;-86
2022/12/26 13:35:49;;;;;;;15.18;13.65;;;13.80;99.90;;;;;;4920592;29;20028;-86
2022/12/26 13:38:15;;;;;;;14.95;13.05;;;13.90;99.90;;;;;;4916404;29;20035;-86
2022/12/26 13:40:55;;;;;;;15.60;14.02;;;13.80;99.90;;;;;;4932549;29;20032;-86
2022/12/26 13:46:46;;;;;;;15.07;13.70;;;13.70;99.90;;;;;;4917184;29;20528;-85
2022/12/26 13:49:28;;;;;;;13.35;12.07;;;13.70;99.90;;;;;;4876861;29;20040;-86
2022/12/26 13:51:56;;;;;;;15.45;14.15;;;13.60;99.90;;;;;;4878522;29;20450;-84
2022/12/26 13:54:23;;;;;;;14.50;12.98;;;13.60;99.90;;;;;;4878365;29;20037;-86
2022/12/26 13:57:00;;;;;;;14.40;13.18;;;13.70;99.90;;;;;;4878470;29;20060;-86
2022/12/26 13:59:29;;;;;;;16.83;15.32;;;13.80;99.90;;;;;;4883388;29;20035;-86
2022/12/26 14:01:57;;;;;;;16.48;15.18;;;13.80;99.90;;;;;;4880785;29;20044;-87
2022/12/26 14:04:51;;;;;;;15.30;14.05;;;13.80;99.90;;;;;;4878082;29;20053;-88
2022/12/26 14:07:36;;;;;;;13.63;12.55;;;13.80;99.90;;;;;;4894602;29;20077;-87
2022/12/26 14:10:22;;;;;;;14.23;12.95;;;13.60;99.90;;;;;;4890759;29;20037;-85
2022/12/26 14:13:00;;;;;;;15.60;14.43;;;13.50;99.90;;;;;;4892852;29;20041;-85
2022/12/26 14:15:37;;;;;;;15.13;13.65;;;13.40;99.90;;;;;;4878404;29;20037;-88
2022/12/26 14:18:21;;;;;;;16.73;15.45;;;13.40;99.90;;;;;;4879120;29;20044;-88
2022/12/26 14:21:27;;;;;;;13.23;12.00;;;13.30;99.90;;;;;;4893638;29;20096;-90
2022/12/26 14:24:11;;;;;;;12.80;11.48;;;13.40;99.90;;;;;;4915231;29;20056;-87
2022/12/26 14:27:21;;;;;;;12.80;11.65;;;13.30;99.90;;;;;;4931966;29;20034;-87
2022/12/26 14:30:17;;;;;;;13.82;12.68;;;13.30;99.90;;;;;;4928378;29;20048;-84
2022/12/26 14:33:02;;;;;;;15.57;14.15;;;13.40;99.90;;;;;;4922251;29;20039;-84
2022/12/26 14:35:56;;;;;;;12.50;11.27;;;13.20;99.90;;;;;;4934204;29;20388;-84
2022/12/26 14:38:41;;;;;;;14.63;13.43;;;13.20;99.90;;;;;;4929980;29;20109;-85
2022/12/26 14:43:56;;;;;;;13.30;12.13;;;13.20;99.90;;;;;;4895361;29;20045;-85
2022/12/26 14:46:31;;;;;;;14.35;13.05;;;13.20;99.90;;;;;;4883159;29;20143;-85
2022/12/26 14:48:59;;;;;;;14.50;12.88;;;13.10;99.90;;;;;;4900655;29;20486;-84
2022/12/26 14:51:30;;;;;;;14.45;13.07;;;13.10;99.90;;;;;;4885294;29;20029;-85
2022/12/26 14:54:21;;;;;;;14.73;13.48;;;13.10;99.90;;;;;;4895665;29;20049;-84
2022/12/26 14:56:48;;;;;;;15.52;14.25;;;13.10;99.90;;;;;;4910273;29;20036;-83
2022/12/26 14:59:31;;;;;;;18.20;16.70;;;13.10;99.90;;;;;;4898753;29;20048;-83
2022/12/26 15:02:15;;;;;;;14.95;13.73;;;13.10;99.90;;;;;;4894387;29;20039;-81
2022/12/26 15:05:01;;;;;;;16.23;14.93;;;13.10;99.90;;;;;;4908306;29;20064;-86
2022/12/26 15:07:33;;;;;;;20.75;15.55;;;13.10;99.90;;;;;;4895649;29;20402;-85
2022/12/26 15:10:18;;;;;;;14.32;13.02;;;13.10;99.90;;;;;;4904616;29;20426;-83